sensor_id;sensor_type;location;lat;lon;timestamp;P1;durP1;ratioP1;P2;durP2;ratioP2
12467;SDS011;57850;52.922;6.256;2022-09-03T00:01:42;5.47;;;1.55;;
12467;SDS011;57850;52.922;6.256;2022-09-03T00:04:16;2.97;;;1.48;;
12467;SDS011;57850;52.922;6.256;2022-09-03T00:06:48;3.83;;;1.27;;
12467;SDS011;57850;52.922;6.256;2022-09-03T00:09:24;1.88;;;1.58;;
12467;SDS011;57850;52.922;6.256;2022-09-03T00:11:57;2.45;;;1.27;;
12467;SDS011;57850;52.922;6.256;2022-09-03T00:14:31;4.25;;;1.40;;
12467;SDS011;57850;52.922;6.256;2022-09-03T00:17:03;4.18;;;1.48;;
12467;SDS011;57850;52.922;6.256;2022-09-03T00:19:35;2.75;;;1.17;;
12467;SDS011;57850;52.922;6.256;2022-09-03T00:22:07;3.72;;;1.55;;
12467;SDS011;57850;52.922;6.256;2022-09-03T00:24:39;3.75;;;1.55;;
12467;SDS011;57850;52.922;6.256;2022-09-03T00:27:10;5.28;;;1.90;;
12467;SDS011;57850;52.922;6.256;2022-09-03T00:29:42;2.90;;;1.30;;
12467;SDS011;57850;52.922;6.256;2022-09-03T00:32:15;4.45;;;1.50;;
12467;SDS011;57850;52.922;6.256;2022-09-03T00:34:46;1.52;;;1.30;;
12467;SDS011;57850;52.922;6.256;2022-09-03T00:37:16;4.00;;;1.42;;
12467;SDS011;57850;52.922;6.256;2022-09-03T00:39:44;2.88;;;1.50;;
12467;SDS011;57850;52.922;6.256;2022-09-03T00:42:16;3.42;;;1.40;;
12467;SDS011;57850;52.922;6.256;2022-09-03T00:45:00;2.38;;;1.25;;
12467;SDS011;57850;52.922;6.256;2022-09-03T00:47:37;3.97;;;1.63;;
12467;SDS011;57850;52.922;6.256;2022-09-03T00:50:14;2.28;;;1.08;;
12467;SDS011;57850;52.922;6.256;2022-09-03T00:52:53;2.95;;;1.08;;
12467;SDS011;57850;52.922;6.256;2022-09-03T00:55:29;2.40;;;1.30;;
12467;SDS011;57850;52.922;6.256;2022-09-03T00:58:08;2.30;;;1.45;;
12467;SDS011;57850;52.922;6.256;2022-09-03T01:00:46;1.50;;;1.10;;
12467;SDS011;57850;52.922;6.256;2022-09-03T01:03:17;1.35;;;1.20;;
12467;SDS011;57850;52.922;6.256;2022-09-03T01:05:57;1.33;;;1.23;;
12467;SDS011;57850;52.922;6.256;2022-09-03T01:08:38;2.10;;;1.40;;
12467;SDS011;57850;52.922;6.256;2022-09-03T01:11:21;3.17;;;1.23;;
12467;SDS011;57850;52.922;6.256;2022-09-03T01:14:02;2.00;;;1.45;;
12467;SDS011;57850;52.922;6.256;2022-09-03T01:16:39;3.53;;;1.33;;
12467;SDS011;57850;52.922;6.256;2022-09-03T01:19:24;1.23;;;1.13;;
12467;SDS011;57850;52.922;6.256;2022-09-03T01:22:16;2.72;;;1.30;;
12467;SDS011;57850;52.922;6.256;2022-09-03T01:25:12;4.28;;;1.48;;
12467;SDS011;57850;52.922;6.256;2022-09-03T01:27:56;4.13;;;1.20;;
12467;SDS011;57850;52.922;6.256;2022-09-03T01:30:27;3.25;;;1.20;;
12467;SDS011;57850;52.922;6.256;2022-09-03T01:32:59;1.40;;;1.20;;
12467;SDS011;57850;52.922;6.256;2022-09-03T01:35:33;1.92;;;1.30;;
12467;SDS011;57850;52.922;6.256;2022-09-03T01:38:11;1.40;;;1.30;;
12467;SDS011;57850;52.922;6.256;2022-09-03T01:40:51;2.40;;;0.98;;
12467;SDS011;57850;52.922;6.256;2022-09-03T01:43:49;1.50;;;1.40;;
12467;SDS011;57850;52.922;6.256;2022-09-03T01:46:23;2.53;;;1.30;;
12467;SDS011;57850;52.922;6.256;2022-09-03T01:48:56;3.58;;;1.27;;
12467;SDS011;57850;52.922;6.256;2022-09-03T01:51:29;1.40;;;1.10;;
12467;SDS011;57850;52.922;6.256;2022-09-03T01:54:16;2.25;;;1.40;;
12467;SDS011;57850;52.922;6.256;2022-09-03T01:57:06;4.20;;;1.20;;
12467;SDS011;57850;52.922;6.256;2022-09-03T01:59:46;1.80;;;1.20;;
12467;SDS011;57850;52.922;6.256;2022-09-03T02:02:19;1.20;;;1.10;;
12467;SDS011;57850;52.922;6.256;2022-09-03T02:04:55;2.75;;;1.20;;
12467;SDS011;57850;52.922;6.256;2022-09-03T02:07:26;3.55;;;1.13;;
12467;SDS011;57850;52.922;6.256;2022-09-03T02:09:58;1.40;;;1.20;;
12467;SDS011;57850;52.922;6.256;2022-09-03T02:12:27;3.17;;;1.17;;
12467;SDS011;57850;52.922;6.256;2022-09-03T02:14:59;1.98;;;1.30;;
12467;SDS011;57850;52.922;6.256;2022-09-03T02:17:27;1.35;;;1.02;;
12467;SDS011;57850;52.922;6.256;2022-09-03T02:19:54;4.75;;;1.15;;
12467;SDS011;57850;52.922;6.256;2022-09-03T02:22:22;2.10;;;1.33;;
12467;SDS011;57850;52.922;6.256;2022-09-03T02:24:49;2.35;;;1.05;;
12467;SDS011;57850;52.922;6.256;2022-09-03T02:27:16;1.33;;;1.20;;
12467;SDS011;57850;52.922;6.256;2022-09-03T02:29:44;1.42;;;1.20;;
12467;SDS011;57850;52.922;6.256;2022-09-03T02:32:13;5.72;;;1.20;;
12467;SDS011;57850;52.922;6.256;2022-09-03T02:34:40;2.47;;;1.30;;
12467;SDS011;57850;52.922;6.256;2022-09-03T02:37:10;1.30;;;1.20;;
12467;SDS011;57850;52.922;6.256;2022-09-03T02:39:38;4.07;;;1.20;;
12467;SDS011;57850;52.922;6.256;2022-09-03T02:42:05;1.77;;;1.30;;
12467;SDS011;57850;52.922;6.256;2022-09-03T02:44:32;5.45;;;1.35;;
12467;SDS011;57850;52.922;6.256;2022-09-03T02:47:02;1.38;;;1.20;;
12467;SDS011;57850;52.922;6.256;2022-09-03T02:49:33;1.33;;;1.05;;
12467;SDS011;57850;52.922;6.256;2022-09-03T02:52:02;2.72;;;1.30;;
12467;SDS011;57850;52.922;6.256;2022-09-03T02:54:33;2.63;;;1.30;;
12467;SDS011;57850;52.922;6.256;2022-09-03T02:57:04;2.80;;;1.20;;
12467;SDS011;57850;52.922;6.256;2022-09-03T02:59:35;2.15;;;1.20;;
12467;SDS011;57850;52.922;6.256;2022-09-03T03:02:11;3.45;;;1.30;;
12467;SDS011;57850;52.922;6.256;2022-09-03T03:04:42;1.10;;;1.00;;
12467;SDS011;57850;52.922;6.256;2022-09-03T03:07:09;2.67;;;1.38;;
12467;SDS011;57850;52.922;6.256;2022-09-03T03:09:35;2.10;;;1.40;;
12467;SDS011;57850;52.922;6.256;2022-09-03T03:12:02;2.28;;;1.60;;
12467;SDS011;57850;52.922;6.256;2022-09-03T03:14:29;1.70;;;1.40;;
12467;SDS011;57850;52.922;6.256;2022-09-03T03:16:55;1.83;;;1.30;;
12467;SDS011;57850;52.922;6.256;2022-09-03T03:19:22;4.32;;;1.20;;
12467;SDS011;57850;52.922;6.256;2022-09-03T03:21:51;1.45;;;1.20;;
12467;SDS011;57850;52.922;6.256;2022-09-03T03:24:17;2.33;;;1.23;;
12467;SDS011;57850;52.922;6.256;2022-09-03T03:26:44;1.80;;;1.20;;
12467;SDS011;57850;52.922;6.256;2022-09-03T03:29:13;1.27;;;1.10;;
12467;SDS011;57850;52.922;6.256;2022-09-03T03:31:42;1.20;;;1.10;;
12467;SDS011;57850;52.922;6.256;2022-09-03T03:34:08;2.30;;;1.40;;
12467;SDS011;57850;52.922;6.256;2022-09-03T03:36:35;2.53;;;1.23;;
12467;SDS011;57850;52.922;6.256;2022-09-03T03:39:03;3.03;;;1.38;;
12467;SDS011;57850;52.922;6.256;2022-09-03T03:41:30;1.30;;;1.20;;
12467;SDS011;57850;52.922;6.256;2022-09-03T03:43:58;3.50;;;1.52;;
12467;SDS011;57850;52.922;6.256;2022-09-03T03:46:28;2.88;;;1.27;;
12467;SDS011;57850;52.922;6.256;2022-09-03T03:48:56;1.60;;;1.30;;
12467;SDS011;57850;52.922;6.256;2022-09-03T03:51:24;1.58;;;1.27;;
12467;SDS011;57850;52.922;6.256;2022-09-03T03:53:52;4.32;;;1.35;;
12467;SDS011;57850;52.922;6.256;2022-09-03T03:56:23;2.03;;;1.35;;
12467;SDS011;57850;52.922;6.256;2022-09-03T03:58:51;2.85;;;1.10;;
12467;SDS011;57850;52.922;6.256;2022-09-03T04:01:20;3.22;;;1.30;;
12467;SDS011;57850;52.922;6.256;2022-09-03T04:03:47;1.95;;;1.30;;
12467;SDS011;57850;52.922;6.256;2022-09-03T04:06:16;2.72;;;0.90;;
12467;SDS011;57850;52.922;6.256;2022-09-03T04:08:44;1.70;;;1.13;;
12467;SDS011;57850;52.922;6.256;2022-09-03T04:11:15;1.27;;;1.17;;
12467;SDS011;57850;52.922;6.256;2022-09-03T04:13:45;1.98;;;1.30;;
12467;SDS011;57850;52.922;6.256;2022-09-03T04:16:13;5.55;;;1.40;;
12467;SDS011;57850;52.922;6.256;2022-09-03T04:18:43;5.43;;;1.40;;
12467;SDS011;57850;52.922;6.256;2022-09-03T04:21:11;1.35;;;1.20;;
12467;SDS011;57850;52.922;6.256;2022-09-03T04:23:39;1.30;;;1.20;;
12467;SDS011;57850;52.922;6.256;2022-09-03T04:26:07;2.05;;;1.25;;
12467;SDS011;57850;52.922;6.256;2022-09-03T04:28:34;1.80;;;1.20;;
12467;SDS011;57850;52.922;6.256;2022-09-03T04:31:03;1.63;;;1.33;;
12467;SDS011;57850;52.922;6.256;2022-09-03T04:33:31;3.30;;;1.30;;
12467;SDS011;57850;52.922;6.256;2022-09-03T04:36:02;1.52;;;1.20;;
12467;SDS011;57850;52.922;6.256;2022-09-03T04:38:30;2.90;;;1.25;;
12467;SDS011;57850;52.922;6.256;2022-09-03T04:40:57;1.67;;;1.15;;
12467;SDS011;57850;52.922;6.256;2022-09-03T04:43:24;1.65;;;1.20;;
12467;SDS011;57850;52.922;6.256;2022-09-03T04:45:51;2.88;;;1.10;;
12467;SDS011;57850;52.922;6.256;2022-09-03T04:48:22;2.45;;;1.23;;
12467;SDS011;57850;52.922;6.256;2022-09-03T04:50:49;2.80;;;1.40;;
12467;SDS011;57850;52.922;6.256;2022-09-03T04:53:15;3.75;;;1.40;;
12467;SDS011;57850;52.922;6.256;2022-09-03T04:55:42;2.08;;;1.30;;
12467;SDS011;57850;52.922;6.256;2022-09-03T04:58:09;3.75;;;1.42;;
12467;SDS011;57850;52.922;6.256;2022-09-03T05:00:35;3.92;;;1.55;;
12467;SDS011;57850;52.922;6.256;2022-09-03T05:03:02;2.67;;;1.30;;
12467;SDS011;57850;52.922;6.256;2022-09-03T05:05:30;2.00;;;1.17;;
12467;SDS011;57850;52.922;6.256;2022-09-03T05:07:58;1.67;;;1.38;;
12467;SDS011;57850;52.922;6.256;2022-09-03T05:10:25;2.10;;;1.40;;
12467;SDS011;57850;52.922;6.256;2022-09-03T05:12:56;4.30;;;1.40;;
12467;SDS011;57850;52.922;6.256;2022-09-03T05:15:24;3.63;;;1.38;;
12467;SDS011;57850;52.922;6.256;2022-09-03T05:17:55;2.72;;;1.80;;
12467;SDS011;57850;52.922;6.256;2022-09-03T05:20:23;1.95;;;1.73;;
12467;SDS011;57850;52.922;6.256;2022-09-03T05:22:51;3.55;;;1.40;;
12467;SDS011;57850;52.922;6.256;2022-09-03T05:25:18;1.77;;;1.38;;
12467;SDS011;57850;52.922;6.256;2022-09-03T05:27:45;2.90;;;1.50;;
12467;SDS011;57850;52.922;6.256;2022-09-03T05:30:12;3.00;;;1.60;;
12467;SDS011;57850;52.922;6.256;2022-09-03T05:32:39;2.88;;;1.60;;
12467;SDS011;57850;52.922;6.256;2022-09-03T05:35:07;2.47;;;1.25;;
12467;SDS011;57850;52.922;6.256;2022-09-03T05:37:34;5.72;;;1.58;;
12467;SDS011;57850;52.922;6.256;2022-09-03T05:40:03;3.92;;;1.50;;
12467;SDS011;57850;52.922;6.256;2022-09-03T05:42:30;5.15;;;1.40;;
12467;SDS011;57850;52.922;6.256;2022-09-03T05:45:02;2.17;;;1.60;;
12467;SDS011;57850;52.922;6.256;2022-09-03T05:47:30;2.60;;;1.17;;
12467;SDS011;57850;52.922;6.256;2022-09-03T05:49:57;3.97;;;1.50;;
12467;SDS011;57850;52.922;6.256;2022-09-03T05:52:24;3.03;;;2.00;;
12467;SDS011;57850;52.922;6.256;2022-09-03T05:54:51;4.25;;;1.73;;
12467;SDS011;57850;52.922;6.256;2022-09-03T05:57:19;6.47;;;1.70;;
12467;SDS011;57850;52.922;6.256;2022-09-03T05:59:45;4.32;;;1.70;;
12467;SDS011;57850;52.922;6.256;2022-09-03T06:02:12;2.53;;;1.48;;
12467;SDS011;57850;52.922;6.256;2022-09-03T06:04:38;2.85;;;1.50;;
12467;SDS011;57850;52.922;6.256;2022-09-03T06:07:05;3.15;;;1.50;;
12467;SDS011;57850;52.922;6.256;2022-09-03T06:09:31;1.80;;;1.35;;
12467;SDS011;57850;52.922;6.256;2022-09-03T06:11:58;4.32;;;1.70;;
12467;SDS011;57850;52.922;6.256;2022-09-03T06:14:26;3.78;;;1.33;;
12467;SDS011;57850;52.922;6.256;2022-09-03T06:16:52;3.30;;;1.80;;
12467;SDS011;57850;52.922;6.256;2022-09-03T06:19:21;2.60;;;1.35;;
12467;SDS011;57850;52.922;6.256;2022-09-03T06:21:47;3.22;;;1.60;;
12467;SDS011;57850;52.922;6.256;2022-09-03T06:24:15;3.58;;;1.60;;
12467;SDS011;57850;52.922;6.256;2022-09-03T06:26:43;3.00;;;1.80;;
12467;SDS011;57850;52.922;6.256;2022-09-03T06:29:10;4.75;;;1.67;;
12467;SDS011;57850;52.922;6.256;2022-09-03T06:31:39;4.10;;;1.73;;
12467;SDS011;57850;52.922;6.256;2022-09-03T06:34:05;2.15;;;1.65;;
12467;SDS011;57850;52.922;6.256;2022-09-03T06:36:32;3.45;;;1.38;;
12467;SDS011;57850;52.922;6.256;2022-09-03T06:38:59;8.93;;;1.83;;
12467;SDS011;57850;52.922;6.256;2022-09-03T06:41:26;3.75;;;1.90;;
12467;SDS011;57850;52.922;6.256;2022-09-03T06:43:57;1.52;;;1.35;;
12467;SDS011;57850;52.922;6.256;2022-09-03T06:46:26;2.25;;;1.90;;
12467;SDS011;57850;52.922;6.256;2022-09-03T06:48:54;3.65;;;1.60;;
12467;SDS011;57850;52.922;6.256;2022-09-03T06:51:21;4.68;;;1.52;;
12467;SDS011;57850;52.922;6.256;2022-09-03T06:53:52;4.93;;;1.70;;
12467;SDS011;57850;52.922;6.256;2022-09-03T06:56:24;5.00;;;1.83;;
12467;SDS011;57850;52.922;6.256;2022-09-03T06:58:51;2.45;;;1.95;;
12467;SDS011;57850;52.922;6.256;2022-09-03T07:01:20;1.92;;;1.73;;
12467;SDS011;57850;52.922;6.256;2022-09-03T07:03:51;1.60;;;1.50;;
12467;SDS011;57850;52.922;6.256;2022-09-03T07:06:21;2.80;;;1.48;;
12467;SDS011;57850;52.922;6.256;2022-09-03T07:08:49;4.50;;;1.70;;
12467;SDS011;57850;52.922;6.256;2022-09-03T07:11:17;1.98;;;1.60;;
12467;SDS011;57850;52.922;6.256;2022-09-03T07:13:47;2.40;;;1.73;;
12467;SDS011;57850;52.922;6.256;2022-09-03T07:16:16;2.53;;;1.52;;
12467;SDS011;57850;52.922;6.256;2022-09-03T07:18:44;10.40;;;2.10;;
12467;SDS011;57850;52.922;6.256;2022-09-03T07:21:12;1.67;;;1.50;;
12467;SDS011;57850;52.922;6.256;2022-09-03T07:23:42;3.40;;;1.83;;
12467;SDS011;57850;52.922;6.256;2022-09-03T07:26:09;3.00;;;1.92;;
12467;SDS011;57850;52.922;6.256;2022-09-03T07:28:38;4.90;;;1.83;;
12467;SDS011;57850;52.922;6.256;2022-09-03T07:31:06;3.08;;;1.77;;
12467;SDS011;57850;52.922;6.256;2022-09-03T07:33:35;4.35;;;1.95;;
12467;SDS011;57850;52.922;6.256;2022-09-03T07:36:02;3.35;;;1.70;;
12467;SDS011;57850;52.922;6.256;2022-09-03T07:38:30;3.40;;;1.50;;
12467;SDS011;57850;52.922;6.256;2022-09-03T07:40:58;7.32;;;2.08;;
12467;SDS011;57850;52.922;6.256;2022-09-03T07:43:25;1.95;;;1.75;;
12467;SDS011;57850;52.922;6.256;2022-09-03T07:45:52;1.80;;;1.58;;
12467;SDS011;57850;52.922;6.256;2022-09-03T07:48:20;2.97;;;1.50;;
12467;SDS011;57850;52.922;6.256;2022-09-03T07:50:46;6.10;;;1.70;;
12467;SDS011;57850;52.922;6.256;2022-09-03T07:53:14;1.83;;;1.60;;
12467;SDS011;57850;52.922;6.256;2022-09-03T07:55:44;3.53;;;1.60;;
12467;SDS011;57850;52.922;6.256;2022-09-03T07:58:13;1.98;;;1.77;;
12467;SDS011;57850;52.922;6.256;2022-09-03T08:00:39;2.50;;;1.77;;
12467;SDS011;57850;52.922;6.256;2022-09-03T08:03:06;2.63;;;1.98;;
12467;SDS011;57850;52.922;6.256;2022-09-03T08:05:33;3.47;;;1.70;;
12467;SDS011;57850;52.922;6.256;2022-09-03T08:08:01;3.20;;;1.50;;
12467;SDS011;57850;52.922;6.256;2022-09-03T08:10:28;3.50;;;1.90;;
12467;SDS011;57850;52.922;6.256;2022-09-03T08:12:55;2.80;;;1.83;;
12467;SDS011;57850;52.922;6.256;2022-09-03T08:15:24;2.28;;;1.60;;
12467;SDS011;57850;52.922;6.256;2022-09-03T08:17:51;2.97;;;1.60;;
12467;SDS011;57850;52.922;6.256;2022-09-03T08:20:18;3.53;;;2.08;;
12467;SDS011;57850;52.922;6.256;2022-09-03T08:22:45;4.53;;;1.50;;
12467;SDS011;57850;52.922;6.256;2022-09-03T08:25:12;4.40;;;1.70;;
12467;SDS011;57850;52.922;6.256;2022-09-03T08:27:39;1.70;;;1.58;;
12467;SDS011;57850;52.922;6.256;2022-09-03T08:30:06;2.15;;;1.70;;
12467;SDS011;57850;52.922;6.256;2022-09-03T08:32:37;2.63;;;1.50;;
12467;SDS011;57850;52.922;6.256;2022-09-03T08:35:04;4.53;;;1.75;;
12467;SDS011;57850;52.922;6.256;2022-09-03T08:37:33;2.72;;;1.80;;
12467;SDS011;57850;52.922;6.256;2022-09-03T08:39:59;4.05;;;1.60;;
12467;SDS011;57850;52.922;6.256;2022-09-03T08:42:29;2.00;;;1.55;;
12467;SDS011;57850;52.922;6.256;2022-09-03T08:45:07;2.65;;;1.65;;
12467;SDS011;57850;52.922;6.256;2022-09-03T08:47:42;3.03;;;1.40;;
12467;SDS011;57850;52.922;6.256;2022-09-03T08:50:15;2.90;;;1.60;;
12467;SDS011;57850;52.922;6.256;2022-09-03T08:52:49;3.47;;;1.73;;
12467;SDS011;57850;52.922;6.256;2022-09-03T08:55:25;4.53;;;1.42;;
12467;SDS011;57850;52.922;6.256;2022-09-03T08:57:55;2.45;;;1.30;;
12467;SDS011;57850;52.922;6.256;2022-09-03T09:00:28;2.33;;;1.65;;
12467;SDS011;57850;52.922;6.256;2022-09-03T09:03:14;2.75;;;1.80;;
12467;SDS011;57850;52.922;6.256;2022-09-03T09:05:53;4.03;;;1.80;;
12467;SDS011;57850;52.922;6.256;2022-09-03T09:08:31;1.50;;;1.40;;
12467;SDS011;57850;52.922;6.256;2022-09-03T09:11:04;3.08;;;1.50;;
12467;SDS011;57850;52.922;6.256;2022-09-03T09:13:43;2.42;;;1.75;;
12467;SDS011;57850;52.922;6.256;2022-09-03T09:16:22;3.83;;;1.58;;
12467;SDS011;57850;52.922;6.256;2022-09-03T09:19:03;7.25;;;1.63;;
12467;SDS011;57850;52.922;6.256;2022-09-03T09:21:39;4.45;;;1.77;;
12467;SDS011;57850;52.922;6.256;2022-09-03T09:24:11;2.95;;;1.70;;
12467;SDS011;57850;52.922;6.256;2022-09-03T09:26:46;5.13;;;1.38;;
12467;SDS011;57850;52.922;6.256;2022-09-03T09:29:13;1.80;;;1.70;;
12467;SDS011;57850;52.922;6.256;2022-09-03T09:31:41;2.47;;;1.70;;
12467;SDS011;57850;52.922;6.256;2022-09-03T09:34:10;2.97;;;1.75;;
12467;SDS011;57850;52.922;6.256;2022-09-03T09:36:40;3.08;;;1.67;;
12467;SDS011;57850;52.922;6.256;2022-09-03T09:39:11;3.33;;;2.00;;
12467;SDS011;57850;52.922;6.256;2022-09-03T09:41:40;2.40;;;2.00;;
12467;SDS011;57850;52.922;6.256;2022-09-03T09:44:07;2.58;;;1.77;;
12467;SDS011;57850;52.922;6.256;2022-09-03T09:46:34;6.68;;;2.40;;
12467;SDS011;57850;52.922;6.256;2022-09-03T09:49:07;3.42;;;2.35;;
12467;SDS011;57850;52.922;6.256;2022-09-03T09:52:00;2.92;;;1.73;;
12467;SDS011;57850;52.922;6.256;2022-09-03T09:54:28;2.30;;;2.08;;
12467;SDS011;57850;52.922;6.256;2022-09-03T09:56:58;2.65;;;1.98;;
12467;SDS011;57850;52.922;6.256;2022-09-03T09:59:27;4.63;;;1.90;;
12467;SDS011;57850;52.922;6.256;2022-09-03T10:02:03;5.57;;;2.08;;
12467;SDS011;57850;52.922;6.256;2022-09-03T10:04:35;9.40;;;2.20;;
12467;SDS011;57850;52.922;6.256;2022-09-03T10:07:04;4.28;;;2.00;;
12467;SDS011;57850;52.922;6.256;2022-09-03T10:09:56;8.93;;;2.40;;
12467;SDS011;57850;52.922;6.256;2022-09-03T10:12:25;6.50;;;2.08;;
12467;SDS011;57850;52.922;6.256;2022-09-03T10:14:58;4.95;;;2.03;;
12467;SDS011;57850;52.922;6.256;2022-09-03T10:17:30;3.85;;;1.80;;
12467;SDS011;57850;52.922;6.256;2022-09-03T10:20:06;5.38;;;2.15;;
12467;SDS011;57850;52.922;6.256;2022-09-03T10:22:56;2.40;;;2.20;;
12467;SDS011;57850;52.922;6.256;2022-09-03T10:25:29;5.03;;;2.08;;
12467;SDS011;57850;52.922;6.256;2022-09-03T10:28:04;4.20;;;2.35;;
12467;SDS011;57850;52.922;6.256;2022-09-03T10:30:33;3.83;;;2.50;;
12467;SDS011;57850;52.922;6.256;2022-09-03T10:33:17;4.43;;;2.20;;
12467;SDS011;57850;52.922;6.256;2022-09-03T10:35:51;3.05;;;2.30;;
12467;SDS011;57850;52.922;6.256;2022-09-03T10:38:26;9.13;;;1.95;;
12467;SDS011;57850;52.922;6.256;2022-09-03T10:40:57;3.03;;;2.30;;
12467;SDS011;57850;52.922;6.256;2022-09-03T10:46:40;4.03;;;2.22;;
12467;SDS011;57850;52.922;6.256;2022-09-03T10:49:19;4.63;;;1.65;;
12467;SDS011;57850;52.922;6.256;2022-09-03T10:52:01;5.63;;;2.15;;
12467;SDS011;57850;52.922;6.256;2022-09-03T10:54:38;2.42;;;2.03;;
12467;SDS011;57850;52.922;6.256;2022-09-03T10:57:18;3.55;;;2.08;;
12467;SDS011;57850;52.922;6.256;2022-09-03T10:59:58;2.63;;;1.88;;
12467;SDS011;57850;52.922;6.256;2022-09-03T11:02:45;2.83;;;1.90;;
12467;SDS011;57850;52.922;6.256;2022-09-03T11:05:37;4.28;;;1.92;;
12467;SDS011;57850;52.922;6.256;2022-09-03T11:08:09;2.47;;;1.90;;
12467;SDS011;57850;52.922;6.256;2022-09-03T11:10:44;4.60;;;2.15;;
12467;SDS011;57850;52.922;6.256;2022-09-03T11:13:16;2.83;;;2.15;;
12467;SDS011;57850;52.922;6.256;2022-09-03T11:15:47;1.88;;;1.70;;
12467;SDS011;57850;52.922;6.256;2022-09-03T11:18:19;6.15;;;2.00;;
12467;SDS011;57850;52.922;6.256;2022-09-03T11:20:51;2.00;;;1.80;;
12467;SDS011;57850;52.922;6.256;2022-09-03T11:23:22;4.25;;;2.00;;
12467;SDS011;57850;52.922;6.256;2022-09-03T11:25:53;2.10;;;1.90;;
12467;SDS011;57850;52.922;6.256;2022-09-03T11:28:26;2.97;;;1.80;;
12467;SDS011;57850;52.922;6.256;2022-09-03T11:31:04;4.68;;;2.15;;
12467;SDS011;57850;52.922;6.256;2022-09-03T11:33:43;3.58;;;1.60;;
12467;SDS011;57850;52.922;6.256;2022-09-03T11:36:12;4.25;;;1.85;;
12467;SDS011;57850;52.922;6.256;2022-09-03T11:38:39;2.10;;;1.90;;
12467;SDS011;57850;52.922;6.256;2022-09-03T11:41:12;2.38;;;2.17;;
12467;SDS011;57850;52.922;6.256;2022-09-03T11:43:40;5.25;;;1.70;;
12467;SDS011;57850;52.922;6.256;2022-09-03T11:46:08;3.10;;;1.92;;
12467;SDS011;57850;52.922;6.256;2022-09-03T11:48:39;2.00;;;1.83;;
12467;SDS011;57850;52.922;6.256;2022-09-03T11:51:20;3.53;;;2.22;;
12467;SDS011;57850;52.922;6.256;2022-09-03T11:53:56;2.35;;;1.98;;
12467;SDS011;57850;52.922;6.256;2022-09-03T11:56:26;2.42;;;2.10;;
12467;SDS011;57850;52.922;6.256;2022-09-03T11:59:00;4.32;;;2.00;;
12467;SDS011;57850;52.922;6.256;2022-09-03T12:01:30;2.15;;;1.88;;
12467;SDS011;57850;52.922;6.256;2022-09-03T12:03:58;3.60;;;2.17;;
12467;SDS011;57850;52.922;6.256;2022-09-03T12:12:39;5.68;;;1.98;;
12467;SDS011;57850;52.922;6.256;2022-09-03T12:15:20;8.68;;;2.10;;
12467;SDS011;57850;52.922;6.256;2022-09-03T12:18:01;4.55;;;2.17;;
12467;SDS011;57850;52.922;6.256;2022-09-03T12:20:47;2.50;;;2.30;;
12467;SDS011;57850;52.922;6.256;2022-09-03T12:23:25;2.58;;;2.20;;
12467;SDS011;57850;52.922;6.256;2022-09-03T12:25:54;2.92;;;1.70;;
12467;SDS011;57850;52.922;6.256;2022-09-03T12:28:24;2.38;;;2.17;;
12467;SDS011;57850;52.922;6.256;2022-09-03T12:31:04;3.35;;;2.03;;
12467;SDS011;57850;52.922;6.256;2022-09-03T12:33:32;4.10;;;2.22;;
12467;SDS011;57850;52.922;6.256;2022-09-03T12:36:00;4.43;;;2.40;;
12467;SDS011;57850;52.922;6.256;2022-09-03T12:38:27;4.93;;;2.05;;
12467;SDS011;57850;52.922;6.256;2022-09-03T12:40:56;3.78;;;2.00;;
12467;SDS011;57850;52.922;6.256;2022-09-03T12:43:27;3.80;;;1.88;;
12467;SDS011;57850;52.922;6.256;2022-09-03T12:45:54;4.70;;;2.05;;
12467;SDS011;57850;52.922;6.256;2022-09-03T12:48:21;4.38;;;1.80;;
12467;SDS011;57850;52.922;6.256;2022-09-03T12:50:48;4.13;;;2.28;;
12467;SDS011;57850;52.922;6.256;2022-09-03T12:53:27;2.78;;;1.85;;
12467;SDS011;57850;52.922;6.256;2022-09-03T12:55:57;2.05;;;1.85;;
12467;SDS011;57850;52.922;6.256;2022-09-03T12:58:29;2.72;;;2.10;;
12467;SDS011;57850;52.922;6.256;2022-09-03T13:01:02;4.88;;;1.98;;
12467;SDS011;57850;52.922;6.256;2022-09-03T13:03:37;4.40;;;1.80;;
12467;SDS011;57850;52.922;6.256;2022-09-03T13:06:13;2.08;;;1.83;;
12467;SDS011;57850;52.922;6.256;2022-09-03T13:08:44;5.63;;;1.70;;
12467;SDS011;57850;52.922;6.256;2022-09-03T13:11:15;2.53;;;2.30;;
12467;SDS011;57850;52.922;6.256;2022-09-03T13:13:51;3.90;;;1.98;;
12467;SDS011;57850;52.922;6.256;2022-09-03T13:16:29;4.60;;;2.00;;
12467;SDS011;57850;52.922;6.256;2022-09-03T13:19:14;4.85;;;2.22;;
12467;SDS011;57850;52.922;6.256;2022-09-03T13:21:49;2.97;;;2.00;;
12467;SDS011;57850;52.922;6.256;2022-09-03T13:27:37;6.47;;;2.35;;
12467;SDS011;57850;52.922;6.256;2022-09-03T13:30:09;3.17;;;2.22;;
12467;SDS011;57850;52.922;6.256;2022-09-03T13:32:41;3.25;;;2.22;;
12467;SDS011;57850;52.922;6.256;2022-09-03T13:35:16;6.32;;;1.98;;
12467;SDS011;57850;52.922;6.256;2022-09-03T13:37:53;1.73;;;1.63;;
12467;SDS011;57850;52.922;6.256;2022-09-03T13:40:27;3.85;;;1.77;;
12467;SDS011;57850;52.922;6.256;2022-09-03T13:43:02;4.65;;;1.90;;
12467;SDS011;57850;52.922;6.256;2022-09-03T13:45:40;4.43;;;2.05;;
12467;SDS011;57850;52.922;6.256;2022-09-03T13:48:12;4.82;;;2.20;;
12467;SDS011;57850;52.922;6.256;2022-09-03T13:51:02;2.53;;;2.10;;
12467;SDS011;57850;52.922;6.256;2022-09-03T13:53:43;1.70;;;1.60;;
12467;SDS011;57850;52.922;6.256;2022-09-03T13:56:18;4.57;;;2.15;;
12467;SDS011;57850;52.922;6.256;2022-09-03T13:58:55;2.95;;;2.00;;
12467;SDS011;57850;52.922;6.256;2022-09-03T14:01:35;2.97;;;1.65;;
12467;SDS011;57850;52.922;6.256;2022-09-03T14:04:13;1.90;;;1.80;;
12467;SDS011;57850;52.922;6.256;2022-09-03T14:06:48;8.13;;;2.35;;
12467;SDS011;57850;52.922;6.256;2022-09-03T14:09:26;2.17;;;1.85;;
12467;SDS011;57850;52.922;6.256;2022-09-03T14:12:01;1.75;;;1.65;;
12467;SDS011;57850;52.922;6.256;2022-09-03T14:14:36;5.18;;;2.03;;
12467;SDS011;57850;52.922;6.256;2022-09-03T14:17:13;3.50;;;1.98;;
12467;SDS011;57850;52.922;6.256;2022-09-03T14:19:51;2.95;;;2.00;;
12467;SDS011;57850;52.922;6.256;2022-09-03T14:22:23;2.13;;;1.92;;
12467;SDS011;57850;52.922;6.256;2022-09-03T14:24:56;3.08;;;2.25;;
12467;SDS011;57850;52.922;6.256;2022-09-03T14:27:26;2.30;;;1.83;;
12467;SDS011;57850;52.922;6.256;2022-09-03T14:29:57;3.30;;;1.45;;
12467;SDS011;57850;52.922;6.256;2022-09-03T14:32:36;3.45;;;1.90;;
12467;SDS011;57850;52.922;6.256;2022-09-03T14:35:26;3.10;;;1.98;;
12467;SDS011;57850;52.922;6.256;2022-09-03T14:38:11;2.92;;;1.90;;
12467;SDS011;57850;52.922;6.256;2022-09-03T14:40:50;4.50;;;1.98;;
12467;SDS011;57850;52.922;6.256;2022-09-03T14:43:30;4.15;;;2.17;;
12467;SDS011;57850;52.922;6.256;2022-09-03T14:46:17;4.80;;;1.88;;
12467;SDS011;57850;52.922;6.256;2022-09-03T14:51:56;2.53;;;1.77;;
12467;SDS011;57850;52.922;6.256;2022-09-03T14:54:40;4.25;;;1.98;;
12467;SDS011;57850;52.922;6.256;2022-09-03T14:57:24;4.45;;;2.03;;
12467;SDS011;57850;52.922;6.256;2022-09-03T15:00:05;6.38;;;1.70;;
12467;SDS011;57850;52.922;6.256;2022-09-03T15:05:38;5.13;;;1.80;;
12467;SDS011;57850;52.922;6.256;2022-09-03T15:08:11;4.07;;;1.98;;
12467;SDS011;57850;52.922;6.256;2022-09-03T15:10:51;2.88;;;1.80;;
12467;SDS011;57850;52.922;6.256;2022-09-03T15:13:22;1.92;;;1.67;;
12467;SDS011;57850;52.922;6.256;2022-09-03T15:15:57;1.92;;;1.70;;
12467;SDS011;57850;52.922;6.256;2022-09-03T15:18:36;3.13;;;1.88;;
12467;SDS011;57850;52.922;6.256;2022-09-03T15:21:18;2.63;;;2.08;;
12467;SDS011;57850;52.922;6.256;2022-09-03T15:23:55;3.92;;;2.10;;
12467;SDS011;57850;52.922;6.256;2022-09-03T15:29:40;2.72;;;1.85;;
12467;SDS011;57850;52.922;6.256;2022-09-03T15:32:17;1.98;;;1.88;;
12467;SDS011;57850;52.922;6.256;2022-09-03T15:35:07;3.90;;;1.70;;
12467;SDS011;57850;52.922;6.256;2022-09-03T15:37:41;2.70;;;1.92;;
12467;SDS011;57850;52.922;6.256;2022-09-03T15:40:16;3.65;;;1.65;;